In Rescue
 
Open Full Screen Window  High Contrast Mode
Wind Gusting 00 knots
05
March 19, 2019 7:33 PM EDT
Weather Information
Wind Direction
  180 °
Wind Speed
  05 kt (6 mph)
Wind Gust
  00 kt (0 mph)
Altimeter
30.30 in
Visibility
10 SM
Temperature
04° C
39° F
Dewpoint
-04° C
25° F
Humidity
56%
Sky Condition
Scattered @ 7,000 ft
VFR

METAR KPHN 192333Z AUTO 18005KT 10SM SCT070 04/M04 A3030 RMK AO2

FAA Disclaimer: The data displayed is for advisory purposes only and is not to be used for flight planning or operations.